Little Sioux, Iowa
Current Conditions -  °F | °C
As of 9:54 AM on Sunday 23 Nov 2014 (Local Time) from KTQE Reporting Station
Broken Clouds Broken Clouds  
Wind Chill: 40°   Ceiling: 4100
Heat Index: 48°   Visibility: 10mi
Dew Point: 40°   Wind: 24mph
Humidity: 74%   Direction: 330°NNW
Pressure: 29.49"   Gusts: 32mph
Location:  41.81°N, 96.02°W
Report Text: KTQE 231554Z AUTO 33021G28KT 10SM FEW031 BKN041 09/04 A2949 RMK AO2 PK WND 33028/1554 RAB1455E06B29E44 SLP984 P0000 T00890044
Loading
Personal Weather Stations






























Interactive Weather Map New forecast layout! Learn more

10-Day Weather Forecast

Advertisements
Track Severe Weather on mobile